Time;durP1;ratioP1;P1;durP2;ratioP2;P2;SDS_P1;SDS_P2;PMS_P1;PMS_P2;Temp;Humidity;BMP_temperature;BMP_pressure;BME280_temperature;BME280_humidity;BME280_pressure;Samples;Min_cycle;Max_cycle;Signal;HPM_P1;HPM_P2
2023/03/14 00:01:15;;;;;;;3.20;2.80;;;;;;;-142.70;100.00;60390.16;4889184;29;20849;-76
2023/03/14 00:03:41;;;;;;;3.55;3.25;;;;;;;-142.70;100.00;60390.16;4889533;29;20044;-75
2023/03/14 00:06:07;;;;;;;4.80;2.95;;;;;;;-142.70;100.00;60390.16;4906120;29;20020;-76
2023/03/14 00:08:34;;;;;;;5.05;3.10;;;;;;;-142.70;100.00;60390.16;4906958;29;20044;-77
2023/03/14 00:11:12;;;;;;;3.33;2.90;;;;;;;-142.70;100.00;60390.16;4883157;29;20032;-76
2023/03/14 00:13:37;;;;;;;3.47;3.00;;;;;;;-142.70;100.00;60390.16;4877113;29;20498;-76
2023/03/14 00:16:08;;;;;;;3.70;3.30;;;;;;;-142.70;100.00;60390.16;4880394;29;20029;-76
2023/03/14 00:18:34;;;;;;;4.05;3.25;;;;;;;-142.70;100.00;60390.16;4874161;29;20734;-76
2023/03/14 00:21:00;;;;;;;4.25;3.00;;;;;;;-142.70;100.00;60390.16;4873365;29;20451;-76
2023/03/14 00:23:27;;;;;;;5.28;3.60;;;;;;;-142.70;100.00;60390.16;4863262;29;20029;-76
2023/03/14 00:25:52;;;;;;;4.30;3.85;;;;;;;-142.70;100.00;60390.16;4889576;29;20506;-77
2023/03/14 00:28:18;;;;;;;3.95;3.55;;;;;;;-142.70;100.00;60390.16;4888936;29;20114;-76
2023/03/14 00:30:43;;;;;;;4.10;3.45;;;;;;;-142.70;100.00;60390.16;4873185;29;20099;-76
2023/03/14 00:33:08;;;;;;;5.53;3.38;;;;;;;-142.70;100.00;60390.16;4888836;29;20118;-76
2023/03/14 00:35:34;;;;;;;6.45;3.80;;;;;;;-142.70;100.00;60390.16;4888524;29;20031;-76
2023/03/14 00:37:59;;;;;;;4.15;3.53;;;;;;;-142.70;100.00;60390.16;4905932;29;20039;-75
2023/03/14 00:40:25;;;;;;;5.20;3.38;;;;;;;-142.70;100.00;60390.16;4886761;29;20060;-76
2023/03/14 00:42:50;;;;;;;4.88;3.90;;;;;;;-142.70;100.00;60390.16;4900908;29;20465;-76
2023/03/14 00:45:15;;;;;;;4.63;3.15;;;;;;;-142.70;100.00;60390.16;4905312;29;20031;-73
2023/03/14 00:47:45;;;;;;;3.83;3.28;;;;;;;-142.70;100.00;60390.16;4879597;29;20132;-73
2023/03/14 00:50:11;;;;;;;5.60;4.10;;;;;;;-142.70;100.00;60390.16;4885375;29;20036;-73
2023/03/14 00:52:36;;;;;;;3.67;3.33;;;;;;;-142.70;100.00;60390.16;4888833;29;20043;-73
2023/03/14 00:55:02;;;;;;;5.07;3.55;;;;;;;-142.70;100.00;60390.16;4888409;29;20087;-73
2023/03/14 00:57:27;;;;;;;7.43;4.00;;;;;;;-142.70;100.00;60390.16;4887888;29;20064;-75
2023/03/14 00:59:53;;;;;;;4.80;3.88;;;;;;;-142.70;100.00;60390.16;4888581;29;20933;-76
2023/03/14 01:02:18;;;;;;;5.22;3.90;;;;;;;-142.70;100.00;60390.16;4855574;29;20549;-73
2023/03/14 01:04:44;;;;;;;5.22;3.58;;;;;;;-142.70;100.00;60390.16;4896481;29;20095;-73
2023/03/14 01:07:09;;;;;;;7.03;3.38;;;;;;;-142.70;100.00;60390.16;4887741;29;20043;-73
2023/03/14 01:09:35;;;;;;;3.85;3.55;;;;;;;-142.70;100.00;60390.16;4888354;29;20088;-73
2023/03/14 01:12:00;;;;;;;3.58;3.20;;;;;;;-142.70;100.00;60390.16;4888204;29;20035;-76
2023/03/14 01:14:26;;;;;;;5.05;3.40;;;;;;;-142.70;100.00;60390.16;4869913;29;20040;-73
2023/03/14 01:16:51;;;;;;;3.58;2.55;;;;;;;-142.70;100.00;60390.16;4898066;29;20032;-73
2023/03/14 01:19:16;;;;;;;5.05;2.75;;;;;;;-142.70;100.00;60390.16;4871914;29;20052;-74
2023/03/14 01:21:42;;;;;;;3.30;3.00;;;;;;;-142.70;100.00;60390.16;4888152;29;20036;-75
2023/03/14 01:24:12;;;;;;;3.75;2.80;;;;;;;-142.70;100.00;60390.16;4887858;29;20067;-75
2023/03/14 01:26:37;;;;;;;4.07;3.08;;;;;;;-142.70;100.00;60390.16;4888486;29;20505;-75
2023/03/14 01:29:03;;;;;;;4.18;3.70;;;;;;;-142.70;100.00;60390.16;4887784;29;20083;-76
2023/03/14 01:31:29;;;;;;;11.60;5.32;;;;;;;-142.70;100.00;60390.16;4887981;29;20079;-76
2023/03/14 01:33:56;;;;;;;6.75;5.00;;;;;;;-142.70;100.00;60390.16;4872175;29;20255;-75
2023/03/14 01:36:21;;;;;;;4.97;4.57;;;;;;;-142.70;100.00;60390.16;4903894;29;20044;-76
2023/03/14 01:38:47;;;;;;;6.38;5.10;;;;;;;-142.70;100.00;60390.16;4905112;29;20035;-76
2023/03/14 01:41:19;;;;;;;5.97;4.85;;;;;;;-142.70;100.00;60390.16;4872030;29;20127;-76
2023/03/14 01:43:45;;;;;;;7.25;4.80;;;;;;;-142.70;100.00;60390.16;4887801;29;20038;-76
2023/03/14 01:46:20;;;;;;;6.22;5.32;;;;;;;-142.70;100.00;60390.16;4887097;29;20032;-76
2023/03/14 01:48:59;;;;;;;6.03;5.47;;;;;;;-142.70;100.00;60390.16;4891348;29;20028;-75
2023/03/14 01:51:36;;;;;;;5.32;4.03;;;;;;;-142.70;100.00;60390.16;4871861;29;20037;-76
2023/03/14 01:54:14;;;;;;;5.32;4.70;;;;;;;-142.70;100.00;60390.16;4904364;29;20071;-75
2023/03/14 01:56:42;;;;;;;8.43;5.18;;;;;;;-142.70;100.00;60390.16;4871727;29;20095;-76
2023/03/14 01:59:08;;;;;;;6.40;5.13;;;;;;;-142.70;100.00;60390.16;4887145;29;20414;-75
2023/03/14 02:01:34;;;;;;;6.93;4.95;;;;;;;-142.70;100.00;60390.16;4887472;29;20819;-76
2023/03/14 02:04:02;;;;;;;5.65;4.53;;;;;;;-142.70;100.00;60390.16;4887393;29;20036;-76
2023/03/14 02:06:34;;;;;;;9.15;4.90;;;;;;;-142.70;100.00;60390.16;4886980;29;20087;-74
2023/03/14 02:09:00;;;;;;;7.82;4.30;;;;;;;-142.70;100.00;60390.16;4904139;29;20072;-74
2023/03/14 02:11:29;;;;;;;7.03;5.10;;;;;;;-142.70;100.00;60390.16;4886850;29;20522;-74
2023/03/14 02:13:56;;;;;;;4.53;3.92;;;;;;;-142.70;100.00;60390.16;4887485;29;20087;-73
2023/03/14 02:16:22;;;;;;;4.53;4.13;;;;;;;-142.70;100.00;60390.16;4887016;29;20059;-74
2023/03/14 02:18:47;;;;;;;4.03;3.63;;;;;;;-142.70;100.00;60390.16;4903823;29;20094;-74
2023/03/14 02:21:25;;;;;;;4.38;3.55;;;;;;;-142.70;100.00;60390.16;4886799;29;20036;-74
2023/03/14 02:24:00;;;;;;;5.85;3.30;;;;;;;-142.70;100.00;60390.16;4903789;29;20075;-76
2023/03/14 02:26:37;;;;;;;4.75;3.38;;;;;;;-142.70;100.00;60390.16;4886828;29;20596;-75
2023/03/14 02:29:02;;;;;;;4.32;3.05;;;;;;;-142.70;100.00;60390.16;4870813;29;20039;-74
2023/03/14 02:31:28;;;;;;;3.10;2.80;;;;;;;-142.70;100.00;60390.16;4886887;29;20035;-74
2023/03/14 02:33:54;;;;;;;3.65;2.80;;;;;;;-142.70;100.00;60390.16;4871388;29;20083;-74
2023/03/14 02:36:20;;;;;;;6.03;2.75;;;;;;;-142.70;100.00;60390.16;4870730;29;20087;-74
2023/03/14 02:38:55;;;;;;;6.03;3.00;;;;;;;-142.70;100.00;60390.16;4871174;29;20032;-74
2023/03/14 02:41:20;;;;;;;4.10;3.13;;;;;;;-142.70;100.00;60390.16;4903228;29;20042;-74
2023/03/14 02:43:46;;;;;;;3.72;2.97;;;;;;;-142.70;100.00;60390.16;4861184;29;20040;-75
2023/03/14 02:46:13;;;;;;;3.65;3.05;;;;;;;-142.70;100.00;60390.16;4889561;29;20036;-75
2023/03/14 02:48:58;;;;;;;3.67;2.80;;;;;;;-142.70;100.00;60390.16;4873310;29;20119;-74
2023/03/14 02:51:25;;;;;;;4.07;2.80;;;;;;;-142.70;100.00;60390.16;4886624;29;20119;-74
2023/03/14 02:53:51;;;;;;;4.75;3.00;;;;;;;-142.70;100.00;60390.16;4875463;29;20039;-74
2023/03/14 02:56:16;;;;;;;5.30;2.92;;;;;;;-142.70;100.00;60390.16;4877957;29;20040;-74
2023/03/14 02:58:42;;;;;;;2.83;2.60;;;;;;;-142.70;100.00;60390.16;4885992;29;20040;-74
2023/03/14 03:01:07;;;;;;;3.50;3.20;;;;;;;-142.70;100.00;60390.16;4903640;29;20039;-74
2023/03/14 03:03:33;;;;;;;3.38;3.05;;;;;;;-142.70;100.00;60390.16;4886179;29;20090;-74
2023/03/14 03:05:58;;;;;;;4.22;3.25;;;;;;;-142.70;100.00;60390.16;4884486;29;20032;-74
2023/03/14 03:08:26;;;;;;;4.72;3.40;;;;;;;-142.70;100.00;60390.16;4895197;29;20434;-74
2023/03/14 03:10:51;;;;;;;3.85;2.90;;;;;;;-142.70;100.00;60390.16;4886379;29;20027;-74
2023/03/14 03:13:18;;;;;;;3.92;3.03;;;;;;;-142.70;100.00;60390.16;4886454;29;20032;-75
2023/03/14 03:15:43;;;;;;;4.78;3.00;;;;;;;-142.70;100.00;60390.16;4870347;29;20032;-74
2023/03/14 03:18:09;;;;;;;4.53;3.33;;;;;;;-142.70;100.00;60390.16;4886367;29;20608;-74
2023/03/14 03:20:34;;;;;;;4.18;3.05;;;;;;;-142.70;100.00;60390.16;4867171;29;20119;-74
2023/03/14 03:23:00;;;;;;;4.10;3.15;;;;;;;-142.70;100.00;60390.16;4883157;29;20108;-75
2023/03/14 03:25:26;;;;;;;5.43;2.45;;;;;;;-142.70;100.00;60390.16;4883054;29;20049;-75
2023/03/14 03:27:53;;;;;;;4.57;2.80;;;;;;;-142.70;100.00;60390.16;4866794;29;20534;-74
2023/03/14 03:30:19;;;;;;;4.13;3.15;;;;;;;-142.70;100.00;60390.16;4890024;29;20036;-75
2023/03/14 03:32:44;;;;;;;5.65;3.83;;;;;;;-142.70;100.00;60390.16;4882703;29;20163;-75
2023/03/14 03:35:10;;;;;;;6.20;4.68;;;;;;;-142.70;100.00;60390.16;4883309;29;20091;-74
2023/03/14 03:37:36;;;;;;;4.55;4.07;;;;;;;-142.70;100.00;60390.16;4867172;29;20809;-74
2023/03/14 03:40:04;;;;;;;4.07;3.63;;;;;;;-142.70;100.00;60390.16;4867789;29;20032;-75
2023/03/14 03:42:30;;;;;;;6.53;3.72;;;;;;;-142.70;100.00;60390.16;4867761;29;20043;-75
2023/03/14 03:44:55;;;;;;;5.30;4.40;;;;;;;-142.70;100.00;60390.16;4871063;29;20025;-74
2023/03/14 03:47:20;;;;;;;7.43;6.47;;;;;;;-142.70;100.00;60390.16;4860240;29;20025;-75
2023/03/14 03:49:46;;;;;;;4.70;4.10;;;;;;;-142.70;100.00;60390.16;4876358;29;20029;-74
2023/03/14 03:52:11;;;;;;;6.85;4.03;;;;;;;-142.70;100.00;60390.16;4882868;29;20336;-75
2023/03/14 03:54:37;;;;;;;7.32;4.47;;;;;;;-142.70;100.00;60390.16;4866978;29;20114;-74
2023/03/14 03:57:02;;;;;;;6.97;4.05;;;;;;;-142.70;100.00;60390.16;4884065;29;20490;-74
2023/03/14 03:59:27;;;;;;;4.45;4.05;;;;;;;-142.70;100.00;60390.16;4886378;29;20056;-75
2023/03/14 04:01:53;;;;;;;6.03;4.38;;;;;;;-142.70;100.00;60390.16;4860521;29;20412;-75
2023/03/14 04:04:18;;;;;;;4.70;4.30;;;;;;;-142.70;100.00;60390.16;4870587;29;20037;-76
2023/03/14 04:06:44;;;;;;;5.20;4.28;;;;;;;-142.70;100.00;60390.16;4867182;29;20059;-75
2023/03/14 04:09:10;;;;;;;4.43;3.78;;;;;;;-142.70;100.00;60390.16;4869271;29;20032;-75
2023/03/14 04:11:35;;;;;;;4.38;3.40;;;;;;;-142.70;100.00;60390.16;4886403;29;20489;-75
2023/03/14 04:14:01;;;;;;;4.35;3.58;;;;;;;-142.70;100.00;60390.16;4876375;29;20112;-75
2023/03/14 04:16:26;;;;;;;5.85;3.83;;;;;;;-142.70;100.00;60390.16;4880573;29;20535;-75
2023/03/14 04:18:52;;;;;;;4.60;3.08;;;;;;;-142.70;100.00;60390.16;4886337;29;20088;-75
2023/03/14 04:21:18;;;;;;;3.35;3.05;;;;;;;-142.70;100.00;60390.16;4873293;29;20029;-75
2023/03/14 04:23:43;;;;;;;3.08;2.78;;;;;;;-142.70;100.00;60390.16;4889184;29;20050;-75
2023/03/14 04:26:09;;;;;;;5.25;3.22;;;;;;;-142.70;100.00;60390.16;4888379;29;20478;-75
2023/03/14 04:28:36;;;;;;;6.28;3.13;;;;;;;-142.70;100.00;60390.16;4906311;29;20035;-76
2023/03/14 04:31:14;;;;;;;4.93;3.03;;;;;;;-142.70;100.00;60390.16;4859579;29;20039;-75
2023/03/14 04:33:40;;;;;;;4.57;3.63;;;;;;;-142.70;100.00;60390.16;4896165;29;20043;-75
2023/03/14 04:36:06;;;;;;;4.20;3.20;;;;;;;-142.70;100.00;60390.16;4903088;29;20032;-76
2023/03/14 04:38:32;;;;;;;5.50;3.15;;;;;;;-142.70;100.00;60390.16;4906044;29;20060;-76
2023/03/14 04:40:59;;;;;;;3.45;2.88;;;;;;;-142.70;100.00;60390.16;4872895;29;20032;-76
2023/03/14 04:43:25;;;;;;;5.95;3.10;;;;;;;-142.70;100.00;60390.16;4888357;29;20447;-75
2023/03/14 04:45:51;;;;;;;7.10;3.30;;;;;;;-142.70;100.00;60390.16;4888801;29;20442;-75
2023/03/14 04:48:17;;;;;;;4.95;3.13;;;;;;;-142.70;100.00;60390.16;4875159;29;20456;-75
2023/03/14 04:50:42;;;;;;;6.82;3.28;;;;;;;-142.70;100.00;60390.16;4888420;29;20059;-75
2023/03/14 04:53:07;;;;;;;4.07;3.53;;;;;;;-142.70;100.00;60390.16;4882984;29;20100;-75
2023/03/14 04:55:34;;;;;;;11.38;3.75;;;;;;;-142.70;100.00;60390.16;4903029;29;20032;-76
2023/03/14 04:57:59;;;;;;;4.97;3.83;;;;;;;-142.70;100.00;60390.16;4888913;29;20421;-75
2023/03/14 05:00:25;;;;;;;3.47;2.95;;;;;;;-142.70;100.00;60390.16;4872676;29;20032;-75
2023/03/14 05:02:50;;;;;;;5.25;3.38;;;;;;;-142.70;100.00;60390.16;4872106;29;20037;-75
2023/03/14 05:05:16;;;;;;;3.88;2.85;;;;;;;-142.70;100.00;60390.16;4899867;29;20042;-75
2023/03/14 05:07:41;;;;;;;5.03;3.50;;;;;;;-142.70;100.00;60390.16;4905473;29;20036;-75
2023/03/14 05:10:07;;;;;;;5.47;3.28;;;;;;;-142.70;100.00;60390.16;4887852;29;20036;-75
2023/03/14 05:12:33;;;;;;;3.95;3.42;;;;;;;-142.70;100.00;60390.16;4872444;29;20020;-75
2023/03/14 05:14:58;;;;;;;5.10;3.50;;;;;;;-142.70;100.00;60390.16;4905358;29;20130;-75
2023/03/14 05:17:24;;;;;;;3.70;3.40;;;;;;;-142.70;100.00;60390.16;4887685;29;20043;-74
2023/03/14 05:19:49;;;;;;;4.70;3.65;;;;;;;-142.70;100.00;60390.16;4905096;29;20116;-75
2023/03/14 05:22:14;;;;;;;4.03;3.67;;;;;;;-142.70;100.00;60390.16;4904872;29;20028;-75
2023/03/14 05:24:40;;;;;;;5.15;3.58;;;;;;;-142.70;100.00;60390.16;4872670;29;20028;-75
2023/03/14 05:27:05;;;;;;;3.28;2.97;;;;;;;-142.70;100.00;60390.16;4887699;29;20541;-75
2023/03/14 05:29:31;;;;;;;5.05;2.72;;;;;;;-142.70;100.00;60390.16;4904697;29;20080;-77
2023/03/14 05:31:56;;;;;;;4.10;2.70;;;;;;;-142.70;100.00;60390.16;4888434;29;20036;-77
2023/03/14 05:34:22;;;;;;;15.68;2.17;;;;;;;-142.70;100.00;60390.16;4872007;29;20403;-75
2023/03/14 05:36:47;;;;;;;3.55;2.33;;;;;;;-142.70;100.00;60390.16;4896596;29;20041;-75
2023/03/14 05:39:12;;;;;;;12.40;2.45;;;;;;;-142.70;100.00;60390.16;4868873;29;20520;-75
2023/03/14 05:41:38;;;;;;;7.93;1.85;;;;;;;-142.70;100.00;60390.16;4885857;29;20028;-74
2023/03/14 05:44:03;;;;;;;9.25;2.80;;;;;;;-142.70;100.00;60390.16;4888085;29;20128;-75
2023/03/14 05:46:30;;;;;;;4.45;3.13;;;;;;;-142.70;100.00;60390.16;4856122;29;20704;-75
2023/03/14 05:48:58;;;;;;;3.83;3.22;;;;;;;-142.70;100.00;60390.16;4891995;29;20148;-77
2023/03/14 05:51:24;;;;;;;3.75;3.45;;;;;;;-142.70;100.00;60390.16;4867438;29;20295;-74
2023/03/14 05:53:49;;;;;;;2.85;2.55;;;;;;;-142.70;100.00;60390.16;4869039;29;20601;-77
2023/03/14 05:56:14;;;;;;;2.80;2.22;;;;;;;-142.70;100.00;60390.16;4889403;29;20032;-76
2023/03/14 05:58:40;;;;;;;3.30;1.48;;;;;;;-142.70;100.00;60390.16;4900235;29;20054;-77
2023/03/14 06:01:06;;;;;;;4.15;1.60;;;;;;;-142.70;100.00;60390.16;4884515;29;20036;-77
2023/03/14 06:03:32;;;;;;;2.35;1.33;;;;;;;-142.70;100.00;60390.16;4872020;29;20102;-77
2023/03/14 06:05:57;;;;;;;4.60;1.58;;;;;;;-142.70;100.00;60390.16;4880690;29;20040;-75
2023/03/14 06:08:24;;;;;;;1.30;1.20;;;;;;;-142.70;100.00;60390.16;4879449;29;20429;-74
2023/03/14 06:10:50;;;;;;;1.30;1.08;;;;;;;-142.70;100.00;60390.16;4886578;29;20027;-76
2023/03/14 06:13:16;;;;;;;1.38;1.25;;;;;;;-142.70;100.00;60390.16;4877202;29;20403;-75
2023/03/14 06:15:42;;;;;;;1.63;1.38;;;;;;;-142.70;100.00;60390.16;4871718;29;20040;-77
2023/03/14 06:18:07;;;;;;;2.08;1.40;;;;;;;-142.70;100.00;60390.16;4888446;29;20029;-78
2023/03/14 06:20:36;;;;;;;2.63;1.20;;;;;;;-142.70;100.00;60390.16;4899916;29;20488;-76
2023/03/14 06:23:01;;;;;;;2.33;2.13;;;;;;;-142.70;100.00;60390.16;4884914;29;20024;-76
2023/03/14 06:25:27;;;;;;;1.30;1.17;;;;;;;-142.70;100.00;60390.16;4884155;29;20039;-76
2023/03/14 06:27:52;;;;;;;2.17;1.60;;;;;;;-142.70;100.00;60390.16;4884434;29;20032;-76
2023/03/14 06:30:18;;;;;;;1.63;1.52;;;;;;;-142.70;100.00;60390.16;4901957;29;20024;-76
2023/03/14 06:32:43;;;;;;;2.83;1.85;;;;;;;-142.70;100.00;60390.16;4869438;29;20036;-76
2023/03/14 06:35:09;;;;;;;2.08;1.85;;;;;;;-142.70;100.00;60390.16;4902190;29;20392;-76
2023/03/14 06:37:34;;;;;;;1.50;1.40;;;;;;;-142.70;100.00;60390.16;4884817;29;20518;-76
2023/03/14 06:40:00;;;;;;;4.60;2.10;;;;;;;-142.70;100.00;60390.16;4901555;29;20051;-77
2023/03/14 06:42:25;;;;;;;2.08;1.88;;;;;;;-142.70;100.00;60390.16;4868897;29;20024;-81
2023/03/14 06:44:51;;;;;;;1.65;1.55;;;;;;;-142.70;100.00;60390.16;4869032;29;20047;-75
2023/03/14 06:47:16;;;;;;;2.38;1.60;;;;;;;-142.70;100.00;60390.16;4878969;29;20408;-75
2023/03/14 06:49:41;;;;;;;1.70;1.58;;;;;;;-142.70;100.00;60390.16;4877436;29;20458;-76
2023/03/14 06:52:07;;;;;;;2.08;1.67;;;;;;;-142.70;100.00;60390.16;4884594;29;20059;-76
2023/03/14 06:54:32;;;;;;;1.70;1.60;;;;;;;-142.70;100.00;60390.16;4884450;29;20036;-77
2023/03/14 06:56:58;;;;;;;1.65;1.33;;;;;;;-142.70;100.00;60390.16;4901437;29;20478;-77
2023/03/14 06:59:23;;;;;;;3.78;1.65;;;;;;;-142.70;100.00;60390.16;4901755;29;20077;-76
2023/03/14 07:01:50;;;;;;;3.58;1.70;;;;;;;-142.70;100.00;60390.16;4901106;29;20300;-74
2023/03/14 07:04:16;;;;;;;2.00;1.42;;;;;;;-142.70;100.00;60390.16;4884926;29;20031;-77
2023/03/14 07:06:44;;;;;;;2.15;1.60;;;;;;;-142.70;100.00;60390.16;4884353;29;20028;-77
2023/03/14 07:09:13;;;;;;;3.28;1.60;;;;;;;-142.70;100.00;60390.16;4884449;29;20032;-77
2023/03/14 07:11:39;;;;;;;1.67;1.58;;;;;;;-142.70;100.00;60390.16;4868675;29;20046;-77
2023/03/14 07:14:04;;;;;;;2.78;1.60;;;;;;;-142.70;100.00;60390.16;4868544;29;20036;-77
2023/03/14 07:16:32;;;;;;;1.52;1.30;;;;;;;-142.70;100.00;60390.16;4892494;29;20499;-77
2023/03/14 07:18:58;;;;;;;3.33;1.45;;;;;;;-142.70;100.00;60390.16;4880075;29;20041;-77
2023/03/14 07:21:24;;;;;;;2.22;1.63;;;;;;;-142.70;100.00;60390.16;4859911;29;20048;-77
2023/03/14 07:23:49;;;;;;;1.85;1.70;;;;;;;-142.70;100.00;60390.16;4875524;29;20518;-82
2023/03/14 07:26:15;;;;;;;2.67;1.50;;;;;;;-142.70;100.00;60390.16;4846317;29;20097;-80
2023/03/14 07:28:40;;;;;;;1.88;1.58;;;;;;;-142.70;100.00;60390.16;4885392;29;20039;-80
2023/03/14 07:31:06;;;;;;;1.98;1.23;;;;;;;-142.70;100.00;60390.16;4885627;29;20510;-80
2023/03/14 07:33:32;;;;;;;3.95;1.70;;;;;;;-142.70;100.00;60390.16;4860155;29;20408;-81
2023/03/14 07:35:59;;;;;;;1.50;1.40;;;;;;;-142.70;100.00;60390.16;4869784;29;20056;-81
2023/03/14 07:38:24;;;;;;;2.10;1.52;;;;;;;-142.70;100.00;60390.16;4894111;29;20036;-81
2023/03/14 07:40:50;;;;;;;1.85;1.63;;;;;;;-142.70;100.00;60390.16;4891200;29;20396;-81
2023/03/14 07:43:16;;;;;;;1.85;1.58;;;;;;;-142.70;100.00;60390.16;4869960;29;20486;-81
2023/03/14 07:45:41;;;;;;;1.80;1.70;;;;;;;-142.70;100.00;60390.16;4884055;29;20033;-81
2023/03/14 07:48:06;;;;;;;2.58;1.67;;;;;;;-142.70;100.00;60390.16;4866833;29;20114;-79
2023/03/14 07:50:32;;;;;;;2.55;2.30;;;;;;;-142.70;100.00;60390.16;4842785;29;20043;-81
2023/03/14 07:52:57;;;;;;;2.90;2.00;;;;;;;-142.70;100.00;60390.16;4872131;29;20076;-82
2023/03/14 07:55:23;;;;;;;6.75;2.20;;;;;;;-142.70;100.00;60390.16;4872632;29;20028;-80
2023/03/14 07:57:48;;;;;;;3.15;1.98;;;;;;;-142.70;100.00;60390.16;4872281;29;20041;-81
2023/03/14 08:00:14;;;;;;;2.47;1.80;;;;;;;-142.70;100.00;60390.16;4877789;29;20063;-80
2023/03/14 08:02:42;;;;;;;2.17;1.85;;;;;;;-142.70;100.00;60390.16;4867749;29;20047;-83
2023/03/14 08:05:09;;;;;;;1.90;1.70;;;;;;;-142.70;100.00;60390.16;4895529;29;20036;-82
2023/03/14 08:07:34;;;;;;;3.50;1.83;;;;;;;-142.70;100.00;60390.16;4872817;29;20429;-79
2023/03/14 08:10:00;;;;;;;1.80;1.70;;;;;;;-142.70;100.00;60390.16;4908661;29;20049;-80
2023/03/14 08:12:25;;;;;;;2.33;1.90;;;;;;;-142.70;100.00;60390.16;4895192;29;20555;-81
2023/03/14 08:14:50;;;;;;;4.40;1.80;;;;;;;-142.70;100.00;60390.16;4904992;29;20028;-80
2023/03/14 08:17:16;;;;;;;2.28;1.50;;;;;;;-142.70;100.00;60390.16;4903178;29;20040;-82
2023/03/14 08:19:43;;;;;;;1.77;1.67;;;;;;;-142.70;100.00;60390.16;4868113;29;20562;-81
2023/03/14 08:22:08;;;;;;;2.33;1.92;;;;;;;-142.70;100.00;60390.16;4880306;29;20491;-83
2023/03/14 08:24:35;;;;;;;1.70;1.58;;;;;;;-142.70;100.00;60390.16;4870732;29;20047;-80
2023/03/14 08:27:00;;;;;;;2.00;1.80;;;;;;;-142.70;100.00;60390.16;4863587;29;20510;-80
2023/03/14 08:29:25;;;;;;;2.08;1.88;;;;;;;-142.70;100.00;60390.16;4884954;29;20149;-82
2023/03/14 08:31:51;;;;;;;3.97;1.90;;;;;;;-142.70;100.00;60390.16;4905128;29;20063;-85
2023/03/14 08:34:16;;;;;;;2.15;1.70;;;;;;;-142.70;100.00;60390.16;4886690;29;20160;-80
2023/03/14 08:36:42;;;;;;;3.63;1.58;;;;;;;-142.70;100.00;60390.16;4885554;29;20068;-80
2023/03/14 08:39:08;;;;;;;1.80;1.70;;;;;;;-142.70;100.00;60390.16;4886680;29;20055;-81
2023/03/14 08:41:39;;;;;;;2.72;1.77;;;;;;;-142.70;100.00;60390.16;4886301;29;20032;-80
2023/03/14 08:44:05;;;;;;;2.33;1.70;;;;;;;-142.70;100.00;60390.16;4860832;29;20041;-81
2023/03/14 08:46:31;;;;;;;3.97;2.05;;;;;;;-142.70;100.00;60390.16;4861428;29;20036;-79
2023/03/14 08:48:56;;;;;;;2.60;1.90;;;;;;;-142.70;100.00;60390.16;4881295;29;20024;-81
2023/03/14 08:51:22;;;;;;;4.55;2.53;;;;;;;-142.70;100.00;60390.16;4881381;29;20518;-80
2023/03/14 08:53:47;;;;;;;3.60;1.83;;;;;;;-142.70;100.00;60390.16;4877855;29;20028;-80
2023/03/14 08:56:13;;;;;;;1.55;1.45;;;;;;;-142.70;100.00;60390.16;4888640;29;20409;-81
2023/03/14 08:58:38;;;;;;;3.10;1.75;;;;;;;-142.70;100.00;60390.16;4875696;29;20032;-80
2023/03/14 09:01:05;;;;;;;3.95;2.05;;;;;;;-142.70;100.00;60390.16;4886559;29;20405;-79
2023/03/14 09:03:31;;;;;;;3.35;1.92;;;;;;;-142.70;100.00;60390.16;4895728;29;20036;-80
2023/03/14 09:06:03;;;;;;;6.30;1.92;;;;;;;-142.70;100.00;60390.16;4851149;29;20039;-80
2023/03/14 09:08:28;;;;;;;2.40;2.20;;;;;;;-142.70;100.00;60390.16;4869612;29;20064;-79
2023/03/14 09:10:54;;;;;;;2.28;1.92;;;;;;;-142.70;100.00;60390.16;4887035;29;20501;-79
2023/03/14 09:13:19;;;;;;;2.33;1.90;;;;;;;-142.70;100.00;60390.16;4869669;29;20032;-80
2023/03/14 09:15:44;;;;;;;3.38;1.83;;;;;;;-142.70;100.00;60390.16;4900668;29;20095;-78
2023/03/14 09:18:11;;;;;;;2.17;1.63;;;;;;;-142.70;100.00;60390.16;4887764;29;20036;-78
2023/03/14 09:20:37;;;;;;;2.72;2.00;;;;;;;-142.70;100.00;60390.16;4904398;29;20048;-78
2023/03/14 09:23:02;;;;;;;6.65;2.10;;;;;;;-142.70;100.00;60390.16;4899132;29;20478;-79
2023/03/14 09:25:28;;;;;;;2.10;1.70;;;;;;;-142.70;100.00;60390.16;4887431;29;20032;-78
2023/03/14 09:27:53;;;;;;;6.13;2.55;;;;;;;-142.70;100.00;60390.16;4887755;29;20028;-75
2023/03/14 09:30:18;;;;;;;3.10;1.65;;;;;;;-142.70;100.00;60390.16;4887304;29;20590;-75
2023/03/14 09:32:44;;;;;;;2.20;2.00;;;;;;;-142.70;100.00;60390.16;4871809;29;20016;-76
2023/03/14 09:35:09;;;;;;;5.57;2.60;;;;;;;-142.70;100.00;60390.16;4887555;29;20028;-81
2023/03/14 09:37:35;;;;;;;2.83;2.30;;;;;;;-142.70;100.00;60390.16;4887215;29;20043;-78
2023/03/14 09:40:00;;;;;;;2.30;2.10;;;;;;;-142.70;100.00;60390.16;4887781;29;20110;-79
2023/03/14 09:42:27;;;;;;;3.35;2.20;;;;;;;-142.70;100.00;60390.16;4887016;29;20032;-79
2023/03/14 09:44:59;;;;;;;2.85;2.03;;;;;;;-142.70;100.00;60390.16;4871547;29;20143;-79
2023/03/14 09:47:25;;;;;;;2.42;1.92;;;;;;;-142.70;100.00;60390.16;4879749;29;20029;-79
2023/03/14 09:49:52;;;;;;;4.10;2.22;;;;;;;-142.70;100.00;60390.16;4896897;29;20410;-79
2023/03/14 09:52:22;;;;;;;2.25;2.13;;;;;;;-142.70;100.00;60390.16;4887408;29;20413;-80
2023/03/14 09:54:51;;;;;;;2.20;2.00;;;;;;;-142.70;100.00;60390.16;4886191;29;20034;-79
2023/03/14 09:57:18;;;;;;;5.10;2.58;;;;;;;-142.70;100.00;60390.16;4886785;29;20704;-78
2023/03/14 09:59:46;;;;;;;3.33;2.88;;;;;;;-142.70;100.00;60390.16;4886814;29;20555;-78
2023/03/14 10:02:19;;;;;;;3.55;2.60;;;;;;;-142.70;100.00;60390.16;4886964;29;20028;-79
2023/03/14 10:04:46;;;;;;;2.72;2.20;;;;;;;-142.70;100.00;60390.16;4886751;29;20040;-78
2023/03/14 10:07:19;;;;;;;2.97;2.00;;;;;;;-142.70;100.00;60390.16;4870930;29;20032;-78
2023/03/14 10:09:47;;;;;;;3.78;2.53;;;;;;;-142.70;100.00;60390.16;4887479;29;20111;-77
2023/03/14 10:12:13;;;;;;;4.40;2.30;;;;;;;-142.70;100.00;60390.16;4868877;29;20040;-80
2023/03/14 10:14:49;;;;;;;6.45;1.80;;;;;;;-142.70;100.00;60390.16;4875949;29;20502;-78
2023/03/14 10:17:16;;;;;;;2.05;1.83;;;;;;;-142.70;100.00;60390.16;4872651;29;20454;-79
2023/03/14 10:19:58;;;;;;;3.00;1.70;;;;;;;-142.70;100.00;60390.16;4871927;29;20574;-79
2023/03/14 10:22:26;;;;;;;2.50;1.42;;;;;;;-142.70;100.00;60390.16;4879360;29;20021;-79
2023/03/14 10:24:54;;;;;;;2.75;1.75;;;;;;;-142.70;100.00;60390.16;4906227;29;20028;-78
2023/03/14 10:27:34;;;;;;;4.20;1.50;;;;;;;-142.70;100.00;60390.16;4875647;29;20040;-77
2023/03/14 10:30:14;;;;;;;5.32;2.75;;;;;;;-142.70;100.00;60390.16;4889650;29;20033;-77
2023/03/14 10:32:45;;;;;;;10.20;2.22;;;;;;;-142.70;100.00;60390.16;4872999;29;20608;-79
2023/03/14 10:35:13;;;;;;;4.22;1.60;;;;;;;-142.70;100.00;60390.16;4908580;29;20024;-76
2023/03/14 10:37:56;;;;;;;4.13;2.15;;;;;;;-142.70;100.00;60390.16;4904234;29;20040;-77
2023/03/14 10:40:32;;;;;;;2.20;1.50;;;;;;;-142.70;100.00;60390.16;4873360;29;20016;-78
2023/03/14 10:42:58;;;;;;;1.75;1.42;;;;;;;-142.70;100.00;60390.16;4901340;29;20091;-77
2023/03/14 10:45:37;;;;;;;2.03;1.30;;;;;;;-142.70;100.00;60390.16;4865206;29;20025;-77
2023/03/14 10:48:23;;;;;;;2.90;0.90;;;;;;;-142.70;100.00;60390.16;4870396;29;20066;-78
2023/03/14 10:51:07;;;;;;;2.33;1.05;;;;;;;-142.70;100.00;60390.16;4875535;29;20490;-77
2023/03/14 10:54:04;;;;;;;0.98;0.80;;;;;;;-142.70;100.00;60390.16;4904666;29;20028;-79
2023/03/14 10:56:36;;;;;;;2.30;1.33;;;;;;;-142.70;100.00;60390.16;4883454;29;20104;-79
2023/03/14 10:59:02;;;;;;;1.05;0.80;;;;;;;-142.70;100.00;60390.16;4892810;29;20115;-76
2023/03/14 11:02:06;;;;;;;1.38;0.85;;;;;;;-142.70;100.00;60390.16;4870884;29;20140;-78
2023/03/14 11:04:47;;;;;;;1.70;1.13;;;;;;;-142.70;100.00;60390.16;4880166;29;20541;-77
2023/03/14 11:07:19;;;;;;;2.72;0.93;;;;;;;-142.70;100.00;60390.16;4877024;29;20043;-78
2023/03/14 11:09:59;;;;;;;1.25;1.15;;;;;;;-142.70;100.00;60390.16;4898902;29;20079;-79